Time;durP1;ratioP1;P1;durP2;ratioP2;P2;SDS_P1;SDS_P2;PMS_P1;PMS_P2;Temp;Humidity;BMP_temperature;BMP_pressure;BME280_temperature;BME280_humidity;BME280_pressure;Samples;Min_cycle;Max_cycle;Signal;HPM_P1;HPM_P2
2024/02/05 00:00:27;;;;;;;32.70;24.52;;;11.50;87.20;;;;;;5094922;28;20388;-71
2024/02/05 00:02:52;;;;;;;34.15;24.83;;;11.50;87.10;;;;;;5095153;28;20380;-71
2024/02/05 00:05:18;;;;;;;36.00;24.33;;;11.50;87.20;;;;;;5095138;28;20086;-71
2024/02/05 00:07:44;;;;;;;33.97;24.33;;;11.60;87.30;;;;;;5093714;28;20032;-71
2024/02/05 00:10:10;;;;;;;35.58;23.95;;;11.60;87.00;;;;;;5095116;28;20442;-69
2024/02/05 00:12:36;;;;;;;33.72;23.98;;;11.50;86.80;;;;;;5094884;28;20028;-71
2024/02/05 00:15:02;;;;;;;33.20;24.00;;;11.50;86.80;;;;;;5095122;28;20039;-71
2024/02/05 00:17:28;;;;;;;35.95;24.88;;;11.40;87.00;;;;;;5094574;28;20044;-71
2024/02/05 00:19:53;;;;;;;39.88;25.10;;;11.50;86.70;;;;;;5076422;28;20069;-70
2024/02/05 00:22:19;;;;;;;37.75;25.75;;;11.50;86.80;;;;;;5094709;28;20020;-71
2024/02/05 00:24:45;;;;;;;30.38;23.50;;;11.40;86.60;;;;;;5094765;28;20485;-70
2024/02/05 00:27:12;;;;;;;34.10;24.40;;;11.40;86.80;;;;;;5094296;28;20074;-71
2024/02/05 00:29:37;;;;;;;36.90;23.77;;;11.40;86.80;;;;;;5094548;28;20032;-70
2024/02/05 00:32:04;;;;;;;35.22;23.52;;;11.30;86.70;;;;;;5094651;28;20516;-71
2024/02/05 00:34:30;;;;;;;34.20;23.83;;;11.30;86.70;;;;;;5094593;28;20043;-71
2024/02/05 00:36:56;;;;;;;31.48;23.80;;;11.30;86.90;;;;;;5092844;28;20130;-71
2024/02/05 00:39:21;;;;;;;33.80;22.73;;;11.30;86.80;;;;;;5094485;28;20192;-70
2024/02/05 00:41:47;;;;;;;30.60;24.15;;;11.30;86.90;;;;;;5094558;28;20050;-70
2024/02/05 00:44:13;;;;;;;32.25;23.25;;;11.30;87.00;;;;;;5094359;28;20082;-71
2024/02/05 00:46:39;;;;;;;31.33;22.67;;;11.20;86.80;;;;;;5094175;28;20112;-71
2024/02/05 00:49:05;;;;;;;32.28;22.48;;;11.10;86.60;;;;;;5094294;28;20042;-70
2024/02/05 00:51:30;;;;;;;30.27;22.45;;;11.10;86.80;;;;;;5094135;28;20060;-69
2024/02/05 00:53:57;;;;;;;32.00;22.88;;;11.10;86.70;;;;;;5076040;28;20066;-71
2024/02/05 00:56:23;;;;;;;38.58;22.77;;;11.10;87.20;;;;;;5094126;28;20549;-70
2024/02/05 00:58:49;;;;;;;32.08;22.63;;;11.10;87.10;;;;;;5094095;28;20034;-71
2024/02/05 01:01:15;;;;;;;33.50;21.58;;;11.10;86.90;;;;;;5093869;28;20405;-71
2024/02/05 01:03:42;;;;;;;35.05;21.95;;;11.10;86.90;;;;;;5093903;28;20024;-71
2024/02/05 01:06:08;;;;;;;29.70;20.75;;;11.10;86.90;;;;;;5094233;28;20070;-71
2024/02/05 01:08:35;;;;;;;29.45;22.60;;;11.10;86.70;;;;;;5093933;28;20036;-70
2024/02/05 01:11:01;;;;;;;30.42;21.73;;;11.10;87.00;;;;;;5093898;28;20398;-68
2024/02/05 01:13:26;;;;;;;31.52;22.23;;;11.10;86.90;;;;;;5093597;28;20055;-71
2024/02/05 01:15:52;;;;;;;29.92;22.05;;;11.00;86.90;;;;;;5093743;28;20071;-71
2024/02/05 01:18:18;;;;;;;32.45;21.85;;;10.90;87.20;;;;;;5092323;28;20445;-70
2024/02/05 01:20:43;;;;;;;30.10;21.80;;;10.90;86.90;;;;;;5093586;28;20492;-70
2024/02/05 01:23:10;;;;;;;28.80;22.05;;;10.80;87.10;;;;;;5075151;28;20165;-71
2024/02/05 01:25:35;;;;;;;30.08;21.63;;;10.80;87.20;;;;;;5093093;28;20039;-70
2024/02/05 01:28:03;;;;;;;31.33;22.27;;;10.70;87.10;;;;;;5093295;28;20032;-70
2024/02/05 01:30:28;;;;;;;35.28;21.42;;;10.70;87.30;;;;;;5093240;28;20055;-69
2024/02/05 01:32:54;;;;;;;31.15;20.92;;;10.80;87.30;;;;;;5093182;28;20040;-70
2024/02/05 01:35:20;;;;;;;31.65;20.98;;;10.80;87.10;;;;;;5093175;28;20024;-70
2024/02/05 01:37:46;;;;;;;28.73;21.20;;;10.80;87.20;;;;;;5093561;28;20040;-70
2024/02/05 01:40:11;;;;;;;28.70;20.55;;;10.80;87.20;;;;;;5093659;28;20138;-71
2024/02/05 01:42:39;;;;;;;24.02;19.27;;;10.90;87.30;;;;;;5093153;28;20028;-70
2024/02/05 01:45:06;;;;;;;30.02;22.08;;;10.80;87.20;;;;;;5093762;28;20095;-70
2024/02/05 01:47:34;;;;;;;26.92;21.58;;;10.80;87.30;;;;;;5075458;28;20040;-71
2024/02/05 01:50:01;;;;;;;31.95;21.33;;;10.80;87.20;;;;;;5093588;28;20103;-69
2024/02/05 01:52:28;;;;;;;29.95;21.27;;;10.80;87.30;;;;;;5093201;28;20054;-70
2024/02/05 01:54:54;;;;;;;29.95;21.83;;;10.80;87.40;;;;;;5093154;28;20131;-70
2024/02/05 01:57:20;;;;;;;32.95;22.38;;;10.80;87.30;;;;;;5092765;28;20488;-69
2024/02/05 01:59:46;;;;;;;29.88;22.05;;;10.80;87.10;;;;;;5092742;28;20111;-70
2024/02/05 02:02:12;;;;;;;30.30;21.95;;;10.70;87.20;;;;;;5092717;28;20047;-71
2024/02/05 02:04:39;;;;;;;29.38;21.50;;;10.50;87.10;;;;;;5093080;28;20494;-70
2024/02/05 02:07:05;;;;;;;31.85;22.23;;;10.50;87.60;;;;;;5074818;28;20032;-70
2024/02/05 02:09:30;;;;;;;31.90;21.80;;;10.50;87.40;;;;;;5092871;28;20037;-70
2024/02/05 02:11:59;;;;;;;29.35;21.23;;;10.40;87.30;;;;;;5092696;28;20036;-71
2024/02/05 02:14:26;;;;;;;31.40;21.55;;;10.40;87.40;;;;;;5092106;28;20056;-72
2024/02/05 02:16:52;;;;;;;25.48;19.65;;;10.30;87.20;;;;;;5092598;28;20422;-70
2024/02/05 02:19:32;;;;;;;33.88;21.08;;;10.30;87.40;;;;;;5092594;28;20081;-70
2024/02/05 02:22:08;;;;;;;26.20;19.27;;;10.30;87.50;;;;;;5092704;28;20028;-69
2024/02/05 02:24:35;;;;;;;27.25;19.75;;;10.20;87.50;;;;;;5092891;28;20036;-70
2024/02/05 02:27:01;;;;;;;29.23;20.45;;;10.20;87.30;;;;;;5091032;28;20052;-71
2024/02/05 02:29:27;;;;;;;26.33;20.77;;;10.20;87.40;;;;;;5092467;28;20032;-70
2024/02/05 02:32:07;;;;;;;29.50;21.17;;;10.30;87.40;;;;;;5092555;28;20520;-71
2024/02/05 02:34:37;;;;;;;27.02;19.52;;;10.30;87.30;;;;;;5092515;28;20021;-69
2024/02/05 02:37:08;;;;;;;26.15;19.48;;;10.30;87.20;;;;;;5092479;28;20153;-71
2024/02/05 02:39:42;;;;;;;23.38;18.30;;;10.30;87.00;;;;;;5092186;28;20122;-70
2024/02/05 02:42:09;;;;;;;25.90;17.88;;;10.40;87.00;;;;;;5092389;28;20108;-70
2024/02/05 02:44:37;;;;;;;28.45;19.05;;;10.40;86.90;;;;;;5092275;28;20065;-70
2024/02/05 02:47:04;;;;;;;26.88;18.83;;;10.40;86.50;;;;;;5092388;28;20044;-71
2024/02/05 02:49:29;;;;;;;26.80;17.70;;;10.40;86.70;;;;;;5092636;28;20790;-70
2024/02/05 02:51:55;;;;;;;24.80;18.35;;;10.40;86.60;;;;;;5092093;28;20032;-70
2024/02/05 02:54:21;;;;;;;25.13;17.92;;;10.30;86.70;;;;;;5092350;28;20501;-71
2024/02/05 02:56:46;;;;;;;24.60;18.05;;;10.20;86.30;;;;;;5090958;28;20043;-71
2024/02/05 02:59:12;;;;;;;27.50;18.38;;;10.20;86.40;;;;;;5090867;28;20032;-70
2024/02/05 03:01:38;;;;;;;22.13;18.27;;;10.10;86.60;;;;;;5092122;28;20033;-70
2024/02/05 03:04:04;;;;;;;26.42;18.05;;;10.10;86.70;;;;;;5092098;28;20036;-71
2024/02/05 03:06:31;;;;;;;25.05;17.83;;;10.10;86.80;;;;;;5092270;28;20075;-71
2024/02/05 03:08:57;;;;;;;26.02;18.10;;;10.10;86.60;;;;;;5092387;28;20031;-70
2024/02/05 03:11:23;;;;;;;24.85;17.95;;;10.10;86.40;;;;;;5092223;28;20410;-71
2024/02/05 03:13:49;;;;;;;21.83;18.23;;;10.10;86.50;;;;;;5092098;28;20020;-70
2024/02/05 03:16:15;;;;;;;27.23;18.02;;;10.10;86.50;;;;;;5091785;28;20028;-69
2024/02/05 03:18:40;;;;;;;25.55;18.08;;;10.10;86.30;;;;;;5092033;28;20039;-71
2024/02/05 03:21:06;;;;;;;24.77;17.55;;;10.10;86.30;;;;;;5091996;28;20024;-70
2024/02/05 03:23:32;;;;;;;25.88;18.27;;;10.00;86.20;;;;;;5092186;28;20401;-70
2024/02/05 03:25:58;;;;;;;25.65;17.75;;;10.00;86.40;;;;;;5091921;28;20048;-70
2024/02/05 03:28:26;;;;;;;27.38;19.10;;;9.90;87.20;;;;;;5095304;28;20044;-71
2024/02/05 03:30:52;;;;;;;25.50;17.95;;;9.80;87.20;;;;;;5095550;28;20043;-70
2024/02/05 03:33:18;;;;;;;26.40;17.90;;;9.70;87.20;;;;;;5095697;28;20032;-70
2024/02/05 03:35:43;;;;;;;23.17;17.83;;;9.80;87.40;;;;;;5095854;28;20104;-70
2024/02/05 03:38:09;;;;;;;22.88;17.00;;;9.80;87.40;;;;;;5095468;28;20067;-71
2024/02/05 03:40:35;;;;;;;21.92;16.85;;;9.80;87.10;;;;;;5095613;28;20035;-69
2024/02/05 03:43:01;;;;;;;27.58;17.35;;;9.90;87.20;;;;;;5095525;28;20036;-70
2024/02/05 03:45:28;;;;;;;24.27;15.95;;;10.00;86.30;;;;;;5095486;28;20068;-70
2024/02/05 03:47:54;;;;;;;23.10;16.70;;;10.00;86.10;;;;;;5095173;28;20107;-71
2024/02/05 03:50:20;;;;;;;25.38;16.63;;;10.10;86.10;;;;;;5095576;28;20107;-70
2024/02/05 03:52:45;;;;;;;24.20;16.33;;;10.10;85.90;;;;;;5095660;28;20032;-71
2024/02/05 03:55:13;;;;;;;21.60;16.23;;;10.20;85.90;;;;;;5095259;28;20484;-71
2024/02/05 03:57:44;;;;;;;25.25;16.88;;;10.20;85.80;;;;;;5095259;28;20066;-71
2024/02/05 04:00:11;;;;;;;20.95;15.60;;;10.10;86.10;;;;;;5095046;28;20111;-71
2024/02/05 04:02:38;;;;;;;24.63;16.42;;;10.10;86.00;;;;;;5095256;28;20036;-70
2024/02/05 04:05:06;;;;;;;20.95;16.35;;;10.20;85.80;;;;;;5095305;28;20060;-70
2024/02/05 04:07:32;;;;;;;20.38;15.85;;;10.10;85.90;;;;;;5095467;28;20107;-70
2024/02/05 04:09:57;;;;;;;23.17;15.93;;;10.10;85.90;;;;;;5094938;28;20106;-70
2024/02/05 04:12:23;;;;;;;21.25;15.70;;;10.00;85.70;;;;;;5094898;28;20116;-70
2024/02/05 04:14:49;;;;;;;27.05;15.05;;;10.00;85.90;;;;;;5095159;28;20028;-71
2024/02/05 04:17:15;;;;;;;22.52;15.35;;;10.00;85.50;;;;;;5095014;28;20040;-71
2024/02/05 04:19:43;;;;;;;21.92;15.82;;;10.10;85.60;;;;;;5094921;28;20029;-70
2024/02/05 04:22:12;;;;;;;19.98;14.98;;;10.10;85.80;;;;;;5094814;28;20047;-71
2024/02/05 04:24:38;;;;;;;26.10;15.23;;;10.20;85.60;;;;;;5094585;28;20028;-70
2024/02/05 04:27:05;;;;;;;22.27;15.25;;;10.20;85.40;;;;;;5094476;28;20479;-69
2024/02/05 04:29:31;;;;;;;20.60;14.77;;;10.20;85.00;;;;;;5094725;28;20089;-70
2024/02/05 04:31:57;;;;;;;22.40;14.73;;;10.30;85.70;;;;;;5094511;28;20115;-69
2024/02/05 04:34:23;;;;;;;24.45;14.60;;;10.30;85.50;;;;;;5094671;28;20032;-69
2024/02/05 04:36:49;;;;;;;23.10;15.05;;;10.40;85.30;;;;;;5094498;28;20521;-70
2024/02/05 04:39:15;;;;;;;22.67;14.90;;;10.50;85.40;;;;;;5094165;28;20056;-70
2024/02/05 04:41:41;;;;;;;22.35;15.10;;;10.40;85.20;;;;;;5094669;28;20035;-70
2024/02/05 04:44:07;;;;;;;20.75;14.65;;;10.50;85.30;;;;;;5094372;28;20040;-70
2024/02/05 04:46:33;;;;;;;22.67;14.55;;;10.50;85.50;;;;;;5076120;28;20029;-69
2024/02/05 04:48:58;;;;;;;21.35;15.35;;;10.50;85.10;;;;;;5094147;28;20036;-70
2024/02/05 04:51:25;;;;;;;22.15;15.32;;;10.50;85.40;;;;;;5094170;28;20043;-70
2024/02/05 04:53:51;;;;;;;22.15;14.75;;;10.60;85.20;;;;;;5094318;28;20032;-70
2024/02/05 04:56:17;;;;;;;22.02;15.65;;;10.60;85.20;;;;;;5094151;28;20111;-71
2024/02/05 04:58:42;;;;;;;23.92;15.10;;;10.50;84.80;;;;;;5094770;28;20032;-70
2024/02/05 05:01:08;;;;;;;20.23;15.38;;;10.50;85.00;;;;;;5094261;28;20066;-70
2024/02/05 05:03:34;;;;;;;21.75;15.15;;;10.50;85.10;;;;;;5093948;28;20491;-70
2024/02/05 05:06:00;;;;;;;25.25;16.27;;;10.50;85.30;;;;;;5094257;28;20036;-69
2024/02/05 05:08:26;;;;;;;28.08;15.70;;;10.40;85.40;;;;;;5093948;28;20035;-69
2024/02/05 05:10:51;;;;;;;23.80;14.95;;;10.40;85.50;;;;;;5094148;28;20036;-69
2024/02/05 05:13:17;;;;;;;22.27;14.85;;;10.50;85.50;;;;;;5093642;28;20097;-70
2024/02/05 05:15:43;;;;;;;25.02;15.13;;;10.50;85.30;;;;;;5092257;28;20032;-70
2024/02/05 05:18:08;;;;;;;23.10;15.63;;;10.50;85.30;;;;;;5093580;28;20044;-70
2024/02/05 05:20:35;;;;;;;22.27;14.75;;;10.40;85.20;;;;;;5092039;28;20028;-70
2024/02/05 05:23:00;;;;;;;24.77;14.43;;;10.40;85.60;;;;;;5093528;28;20032;-70
2024/02/05 05:25:26;;;;;;;18.90;14.20;;;10.40;85.70;;;;;;5093129;28;20397;-69
2024/02/05 05:27:52;;;;;;;19.92;14.10;;;10.50;85.90;;;;;;5093551;28;20035;-71
2024/02/05 05:30:18;;;;;;;20.70;14.43;;;10.50;85.80;;;;;;5093027;28;20516;-70
2024/02/05 05:32:43;;;;;;;22.23;14.15;;;10.60;85.90;;;;;;5093701;28;20028;-70
2024/02/05 05:35:09;;;;;;;25.00;15.27;;;10.60;85.50;;;;;;5093734;28;20039;-70
2024/02/05 05:37:35;;;;;;;22.85;14.48;;;10.50;85.40;;;;;;5093232;28;20070;-71
2024/02/05 05:40:01;;;;;;;24.02;13.93;;;10.50;85.30;;;;;;5093488;28;20533;-70
2024/02/05 05:42:26;;;;;;;23.45;14.55;;;10.60;85.50;;;;;;5091592;28;20500;-71
2024/02/05 05:44:52;;;;;;;20.70;12.55;;;10.60;85.30;;;;;;5093228;28;20381;-71
2024/02/05 05:47:19;;;;;;;21.27;14.10;;;10.50;85.10;;;;;;5093072;28;20036;-70
2024/02/05 05:49:45;;;;;;;21.45;14.82;;;10.50;85.20;;;;;;5092206;28;20028;-71
2024/02/05 05:52:11;;;;;;;20.13;13.35;;;10.40;85.40;;;;;;5092998;28;20043;-69
2024/02/05 05:54:37;;;;;;;20.23;13.32;;;10.50;85.60;;;;;;5092826;28;20032;-71
2024/02/05 05:57:03;;;;;;;20.42;13.25;;;10.50;85.30;;;;;;5074484;28;20055;-71
2024/02/05 05:59:28;;;;;;;19.58;13.18;;;10.50;85.10;;;;;;5092869;28;20024;-70
2024/02/05 06:01:54;;;;;;;20.90;13.50;;;10.50;85.10;;;;;;5092995;28;20040;-71
2024/02/05 06:04:20;;;;;;;18.23;12.45;;;10.50;85.00;;;;;;5092768;28;20039;-71
2024/02/05 06:06:46;;;;;;;19.40;13.38;;;10.40;84.70;;;;;;5092769;28;20459;-70
2024/02/05 06:09:18;;;;;;;21.45;12.85;;;10.40;84.90;;;;;;5092684;28;20032;-69
2024/02/05 06:11:46;;;;;;;19.50;13.48;;;10.40;84.90;;;;;;5092753;28;20060;-70
2024/02/05 06:14:12;;;;;;;19.77;13.27;;;10.40;84.90;;;;;;5092834;28;20103;-71
2024/02/05 06:16:38;;;;;;;20.83;12.93;;;10.40;84.70;;;;;;5092602;28;20584;-71
2024/02/05 06:19:03;;;;;;;19.08;12.40;;;10.40;84.90;;;;;;5092644;28;20036;-72
2024/02/05 06:21:29;;;;;;;19.20;13.35;;;10.30;84.50;;;;;;5092451;28;20035;-70
2024/02/05 06:23:55;;;;;;;24.13;12.63;;;10.40;84.80;;;;;;5074264;28;20148;-69
2024/02/05 06:26:20;;;;;;;19.88;12.68;;;10.30;84.50;;;;;;5092597;28;20036;-70
2024/02/05 06:28:46;;;;;;;19.10;13.65;;;10.40;84.90;;;;;;5092632;28;20516;-70
2024/02/05 06:31:13;;;;;;;19.90;13.35;;;10.30;84.50;;;;;;5092431;28;20115;-71
2024/02/05 06:33:39;;;;;;;21.60;13.38;;;10.40;84.70;;;;;;5092618;28;20115;-71
2024/02/05 06:36:05;;;;;;;19.60;13.20;;;10.40;84.80;;;;;;5092151;28;20028;-70
2024/02/05 06:38:31;;;;;;;18.88;12.57;;;10.40;84.80;;;;;;5074280;28;20429;-71
2024/02/05 06:40:57;;;;;;;22.90;12.77;;;10.40;84.70;;;;;;5092657;28;20055;-70
2024/02/05 06:43:23;;;;;;;22.92;12.88;;;10.40;84.90;;;;;;5092402;28;20511;-71
2024/02/05 06:45:49;;;;;;;17.92;13.25;;;10.40;85.00;;;;;;5092468;28;20077;-71
2024/02/05 06:48:14;;;;;;;19.83;11.77;;;10.40;85.10;;;;;;5092507;28;20099;-70
2024/02/05 06:50:40;;;;;;;19.50;12.82;;;10.40;84.90;;;;;;5092087;28;20505;-72
2024/02/05 06:53:06;;;;;;;21.63;12.73;;;10.50;85.00;;;;;;5092135;28;20036;-70
2024/02/05 06:55:32;;;;;;;19.05;12.70;;;10.50;84.80;;;;;;5092282;28;20109;-70
2024/02/05 06:57:58;;;;;;;19.48;13.77;;;10.50;84.70;;;;;;5092411;28;20538;-71
2024/02/05 07:00:23;;;;;;;21.48;12.85;;;10.60;84.70;;;;;;5092529;28;20024;-71
2024/02/05 07:02:52;;;;;;;18.83;12.48;;;10.50;84.90;;;;;;5096363;28;20036;-71
2024/02/05 07:05:20;;;;;;;23.13;12.52;;;10.60;84.90;;;;;;5096369;28;20024;-71
2024/02/05 07:07:46;;;;;;;19.60;13.27;;;10.60;84.80;;;;;;5096465;28;20484;-70
2024/02/05 07:10:11;;;;;;;20.88;13.85;;;10.60;84.70;;;;;;5097151;28;20024;-71
2024/02/05 07:12:37;;;;;;;21.55;13.80;;;10.60;84.70;;;;;;5096509;28;20457;-71
2024/02/05 07:15:03;;;;;;;24.45;14.73;;;10.60;84.60;;;;;;5096053;28;20082;-72
2024/02/05 07:17:34;;;;;;;19.55;13.50;;;10.70;84.70;;;;;;5077749;28;20401;-71
2024/02/05 07:20:01;;;;;;;23.40;14.05;;;10.80;84.80;;;;;;5096274;28;20370;-69
2024/02/05 07:22:30;;;;;;;19.80;13.15;;;10.80;84.50;;;;;;5096269;28;20097;-71
2024/02/05 07:24:57;;;;;;;19.67;12.80;;;10.80;84.90;;;;;;5096170;28;20086;-71
2024/02/05 07:27:25;;;;;;;19.42;13.90;;;10.90;84.90;;;;;;5095802;28;20048;-72
2024/02/05 07:29:51;;;;;;;24.27;14.27;;;10.90;84.60;;;;;;5095757;28;20069;-71
2024/02/05 07:32:18;;;;;;;24.95;14.43;;;10.90;84.80;;;;;;5096189;28;20065;-70
2024/02/05 07:34:45;;;;;;;24.70;14.23;;;11.00;84.70;;;;;;5095773;28;20040;-72
2024/02/05 07:37:11;;;;;;;23.38;13.82;;;10.90;84.50;;;;;;5095786;28;20040;-69
2024/02/05 07:39:37;;;;;;;21.92;13.60;;;10.90;84.90;;;;;;5095400;28;20047;-72
2024/02/05 07:42:03;;;;;;;20.58;13.57;;;10.90;84.60;;;;;;5095634;28;20519;-71
2024/02/05 07:44:29;;;;;;;23.88;13.85;;;11.00;84.80;;;;;;5095498;28;20036;-71
2024/02/05 07:46:55;;;;;;;21.67;14.15;;;11.00;84.70;;;;;;5077390;28;20497;-70
2024/02/05 07:49:21;;;;;;;23.40;13.98;;;11.00;84.80;;;;;;5095452;28;20024;-71
2024/02/05 07:51:48;;;;;;;24.38;14.52;;;11.10;84.90;;;;;;5095725;28;20040;-70
2024/02/05 07:54:15;;;;;;;22.25;13.60;;;11.10;84.80;;;;;;5095635;28;20148;-71
2024/02/05 07:56:44;;;;;;;27.08;15.05;;;11.00;84.70;;;;;;5095487;28;20040;-71
2024/02/05 07:59:11;;;;;;;23.83;14.65;;;11.10;85.00;;;;;;5078076;28;20561;-71
2024/02/05 08:01:38;;;;;;;22.15;13.60;;;11.10;85.00;;;;;;5095192;28;20075;-71
2024/02/05 08:04:04;;;;;;;24.60;14.52;;;11.20;85.00;;;;;;5095260;28;20032;-71
2024/02/05 08:06:30;;;;;;;30.02;14.63;;;11.30;85.00;;;;;;5095138;28;20024;-71
2024/02/05 08:08:56;;;;;;;27.63;14.73;;;11.40;84.80;;;;;;5095179;28;20028;-73
2024/02/05 08:11:26;;;;;;;27.85;14.75;;;11.50;84.80;;;;;;5077171;28;20082;-70
2024/02/05 08:13:52;;;;;;;22.80;14.27;;;11.50;84.10;;;;;;5075824;28;20466;-71
2024/02/05 08:16:18;;;;;;;32.38;15.43;;;11.60;84.40;;;;;;5094634;28;20175;-71
2024/02/05 08:18:44;;;;;;;25.08;14.20;;;11.60;84.40;;;;;;5094759;28;20064;-72
2024/02/05 08:21:10;;;;;;;27.67;15.52;;;11.60;84.70;;;;;;5094859;28;20044;-71
2024/02/05 08:23:36;;;;;;;25.15;16.17;;;11.50;84.00;;;;;;5094962;28;20036;-73
2024/02/05 08:26:02;;;;;;;33.17;16.45;;;11.60;84.30;;;;;;5076415;28;20127;-73
2024/02/05 08:28:28;;;;;;;26.38;15.60;;;11.50;84.10;;;;;;5094834;28;20036;-73
2024/02/05 08:30:55;;;;;;;28.48;16.58;;;11.60;84.20;;;;;;5094471;28;20098;-72
2024/02/05 08:33:20;;;;;;;27.85;15.57;;;11.70;84.40;;;;;;5094644;28;20036;-73
2024/02/05 08:35:46;;;;;;;31.13;17.30;;;11.80;84.20;;;;;;5094852;28;20141;-73
2024/02/05 08:38:12;;;;;;;29.17;15.90;;;11.80;84.10;;;;;;5076487;28;20457;-73
2024/02/05 08:40:37;;;;;;;28.00;16.77;;;12.00;84.10;;;;;;5094687;28;20034;-73
2024/02/05 08:43:04;;;;;;;29.80;16.13;;;12.00;83.60;;;;;;5094401;28;20455;-72
2024/02/05 08:45:30;;;;;;;28.77;16.35;;;11.90;83.70;;;;;;5094249;28;20029;-71
2024/02/05 08:47:56;;;;;;;32.58;16.23;;;11.90;83.70;;;;;;5094557;28;20028;-72
2024/02/05 08:50:29;;;;;;;22.13;15.93;;;12.00;83.80;;;;;;5094455;28;20028;-73
2024/02/05 08:52:54;;;;;;;28.17;16.10;;;12.00;83.80;;;;;;5094950;28;20051;-73
2024/02/05 08:55:20;;;;;;;31.00;15.98;;;12.00;83.70;;;;;;5094634;28;20497;-74
2024/02/05 08:57:49;;;;;;;26.92;17.20;;;12.00;83.80;;;;;;5094353;28;20055;-72
2024/02/05 09:00:15;;;;;;;29.00;17.33;;;12.00;83.80;;;;;;5094224;28;20059;-73
2024/02/05 09:02:40;;;;;;;26.90;16.95;;;12.10;83.80;;;;;;5093814;28;20040;-72
2024/02/05 09:05:06;;;;;;;22.33;15.52;;;12.20;83.60;;;;;;5094234;28;20029;-72
2024/02/05 09:07:34;;;;;;;30.60;18.23;;;12.30;83.60;;;;;;5075460;28;20047;-72
2024/02/05 09:10:00;;;;;;;30.65;18.90;;;12.40;83.60;;;;;;5094242;28;20024;-73
2024/02/05 09:12:25;;;;;;;30.42;18.42;;;12.40;83.10;;;;;;5094190;28;20039;-73
2024/02/05 09:14:51;;;;;;;30.83;17.42;;;12.40;82.70;;;;;;5094290;28;20028;-73
2024/02/05 09:17:17;;;;;;;26.88;16.95;;;12.40;83.00;;;;;;5093852;28;20481;-73
2024/02/05 09:19:44;;;;;;;33.33;17.33;;;12.40;82.90;;;;;;5093940;28;20036;-73
2024/02/05 09:22:09;;;;;;;33.42;17.92;;;12.50;83.00;;;;;;5094701;28;20120;-72
2024/02/05 09:24:36;;;;;;;29.70;17.48;;;12.50;82.80;;;;;;5093854;28;20043;-73
2024/02/05 09:27:01;;;;;;;31.42;18.17;;;12.60;82.70;;;;;;5075426;28;20545;-73
2024/02/05 09:29:27;;;;;;;33.03;18.50;;;12.60;82.70;;;;;;5092378;28;20071;-72
2024/02/05 09:31:53;;;;;;;30.23;18.85;;;12.70;82.70;;;;;;5093771;28;20097;-72
2024/02/05 09:34:20;;;;;;;27.55;18.42;;;12.80;82.50;;;;;;5094005;28;20496;-72
2024/02/05 09:36:46;;;;;;;26.15;17.58;;;12.90;82.30;;;;;;5094277;28;20040;-73
2024/02/05 09:39:12;;;;;;;30.48;17.63;;;13.00;81.80;;;;;;5095157;28;20028;-77
2024/02/05 09:41:40;;;;;;;30.20;18.15;;;13.00;81.50;;;;;;5094663;28;20043;-80
2024/02/05 09:44:06;;;;;;;32.17;17.88;;;13.10;81.40;;;;;;5076506;28;20115;-80
2024/02/05 09:46:33;;;;;;;32.75;17.83;;;13.20;81.30;;;;;;5095609;28;20121;-80
2024/02/05 09:49:02;;;;;;;35.03;19.13;;;13.30;81.20;;;;;;5095494;28;20036;-81
2024/02/05 09:51:31;;;;;;;32.85;18.25;;;13.40;81.00;;;;;;5094057;28;20031;-79
2024/02/05 09:53:59;;;;;;;33.75;18.08;;;13.50;81.60;;;;;;5093698;28;20059;-80
2024/02/05 09:56:30;;;;;;;41.00;19.83;;;13.60;80.90;;;;;;5093355;28;20043;-81
2024/02/05 09:58:56;;;;;;;32.03;18.85;;;13.60;80.70;;;;;;5093459;28;20028;-77
2024/02/05 10:01:25;;;;;;;29.15;18.13;;;13.60;80.70;;;;;;5093422;28;20487;-80
2024/02/05 10:03:53;;;;;;;34.55;17.30;;;13.60;80.70;;;;;;5093243;28;20446;-80
2024/02/05 10:06:21;;;;;;;31.85;19.50;;;13.70;80.80;;;;;;5093254;28;20367;-79
2024/02/05 10:08:56;;;;;;;40.53;20.35;;;13.80;80.80;;;;;;5075807;28;20060;-77
2024/02/05 10:11:23;;;;;;;36.53;19.65;;;13.80;80.90;;;;;;5093535;28;20111;-80
2024/02/05 10:13:49;;;;;;;35.42;17.92;;;13.90;80.80;;;;;;5093219;28;20103;-80
2024/02/05 10:16:15;;;;;;;32.05;19.52;;;14.00;80.50;;;;;;5093516;28;20032;-79
2024/02/05 10:18:40;;;;;;;32.30;18.65;;;14.20;80.60;;;;;;5092143;28;20035;-78
2024/02/05 10:21:07;;;;;;;34.42;19.45;;;14.30;80.30;;;;;;5094157;28;20501;-80
2024/02/05 10:23:33;;;;;;;28.92;19.85;;;14.30;80.10;;;;;;5094488;28;20043;-80
2024/02/05 10:26:02;;;;;;;44.95;19.65;;;14.40;80.20;;;;;;5095654;28;20040;-83
2024/02/05 10:28:29;;;;;;;31.45;19.23;;;14.50;80.20;;;;;;5093981;28;20189;-79
2024/02/05 10:31:07;;;;;;;30.52;19.30;;;14.60;80.10;;;;;;5093389;28;20481;-79
2024/02/05 10:33:32;;;;;;;29.85;20.58;;;14.60;80.30;;;;;;5095936;28;20036;-79
2024/02/05 10:35:58;;;;;;;37.70;20.38;;;14.60;79.90;;;;;;5092946;28;20509;-80
2024/02/05 10:38:28;;;;;;;33.47;20.45;;;14.70;79.90;;;;;;5093104;28;20517;-79
2024/02/05 10:40:54;;;;;;;37.20;20.77;;;14.80;80.10;;;;;;5093145;28;20040;-81
2024/02/05 10:43:20;;;;;;;31.88;20.40;;;14.70;79.80;;;;;;5092893;28;20028;-81
2024/02/05 10:45:46;;;;;;;35.75;21.25;;;14.70;79.80;;;;;;5093123;28;20034;-79
2024/02/05 10:48:11;;;;;;;38.22;21.25;;;14.70;80.00;;;;;;5092807;28;20040;-80
2024/02/05 10:50:37;;;;;;;32.17;20.30;;;14.70;80.10;;;;;;5093048;28;20420;-78
2024/02/05 10:53:03;;;;;;;34.38;20.80;;;14.70;80.10;;;;;;5094297;28;20120;-78
2024/02/05 10:55:30;;;;;;;32.97;20.00;;;14.80;80.30;;;;;;5092749;28;20039;-81
2024/02/05 10:57:56;;;;;;;38.20;21.58;;;14.80;80.10;;;;;;5093228;28;20044;-79
2024/02/05 11:00:23;;;;;;;44.40;21.00;;;14.90;80.30;;;;;;5092524;28;20028;-81
2024/02/05 11:02:55;;;;;;;34.22;21.55;;;14.90;80.00;;;;;;5092258;28;20036;-78
2024/02/05 11:05:24;;;;;;;30.73;20.52;;;15.00;80.20;;;;;;5093048;28;20401;-81
2024/02/05 11:07:59;;;;;;;31.52;18.95;;;15.00;80.10;;;;;;5093677;28;20132;-80
2024/02/05 11:10:27;;;;;;;40.47;21.45;;;15.00;80.00;;;;;;5093162;28;20599;-80
2024/02/05 11:13:00;;;;;;;40.55;21.13;;;15.10;80.00;;;;;;5092549;28;20039;-78
2024/02/05 11:15:37;;;;;;;29.55;20.48;;;15.10;80.10;;;;;;5092209;28;20490;-78
2024/02/05 11:18:11;;;;;;;40.58;21.23;;;15.20;80.10;;;;;;5092510;28;20044;-81
2024/02/05 11:20:38;;;;;;;34.85;20.17;;;15.20;79.80;;;;;;5094638;28;20075;-79
2024/02/05 11:23:05;;;;;;;40.15;22.02;;;15.30;79.70;;;;;;5093817;28;20043;-80
2024/02/05 11:25:31;;;;;;;34.53;21.85;;;15.30;79.60;;;;;;5092735;28;20060;-82
2024/02/05 11:27:58;;;;;;;40.67;20.23;;;15.30;79.70;;;;;;5092733;28;20044;-82
2024/02/05 11:30:28;;;;;;;37.55;20.80;;;15.40;79.80;;;;;;5092384;28;20042;-82
2024/02/05 11:32:54;;;;;;;42.50;22.13;;;15.50;79.80;;;;;;5075626;28;20428;-83
2024/02/05 11:35:29;;;;;;;31.65;19.45;;;15.60;79.60;;;;;;5094179;28;20083;-85
2024/02/05 11:38:05;;;;;;;32.42;18.17;;;15.70;79.70;;;;;;5092508;28;20032;-81
2024/02/05 11:40:31;;;;;;;29.60;19.88;;;15.70;79.10;;;;;;5073875;28;20043;-81
2024/02/05 11:43:04;;;;;;;36.20;20.20;;;15.80;79.20;;;;;;5092661;28;20043;-79
2024/02/05 11:45:35;;;;;;;35.78;17.42;;;15.80;79.30;;;;;;5092386;28;20339;-79
2024/02/05 11:48:01;;;;;;;28.02;16.67;;;15.70;79.20;;;;;;5093567;28;20031;-78
2024/02/05 11:50:28;;;;;;;33.45;18.40;;;15.70;79.50;;;;;;5096119;28;20093;-81
2024/02/05 11:52:54;;;;;;;33.05;18.77;;;15.60;79.20;;;;;;5095763;28;20039;-78
2024/02/05 11:55:23;;;;;;;32.38;18.92;;;15.60;79.40;;;;;;5095875;28;20044;-79
2024/02/05 11:57:51;;;;;;;30.02;16.35;;;15.60;79.60;;;;;;5095850;28;20036;-77
2024/02/05 12:00:18;;;;;;;32.35;16.73;;;15.50;80.20;;;;;;5096167;28;20058;-83
2024/02/05 12:02:45;;;;;;;28.40;16.63;;;15.50;79.70;;;;;;5095575;28;20032;-75
2024/02/05 12:05:12;;;;;;;33.35;15.55;;;15.60;79.80;;;;;;5095770;28;20339;-76
2024/02/05 12:07:38;;;;;;;39.70;15.95;;;15.60;79.60;;;;;;5095510;28;20484;-78
2024/02/05 12:10:10;;;;;;;29.90;15.20;;;15.70;79.80;;;;;;5095358;28;20036;-78
2024/02/05 12:12:37;;;;;;;34.85;15.60;;;15.70;79.90;;;;;;5099011;28;20032;-80
2024/02/05 12:15:20;;;;;;;23.73;13.40;;;15.70;79.70;;;;;;5094096;28;20066;-79
2024/02/05 12:17:46;;;;;;;23.08;11.50;;;15.80;80.10;;;;;;5094114;28;20443;-77
2024/02/05 12:20:19;;;;;;;29.58;12.70;;;15.80;79.60;;;;;;5094597;28;20032;-80
2024/02/05 12:22:48;;;;;;;31.65;12.65;;;15.90;79.90;;;;;;5095039;28;20042;-77
2024/02/05 12:25:15;;;;;;;24.83;12.65;;;15.90;80.00;;;;;;5095577;22;20020;-78